createdAt,value
2017-11-12T00:02:18.739Z,72.40
2017-11-12T00:04:45.000Z,72.50
2017-11-12T00:07:11.250Z,72.80
2017-11-12T00:09:38.166Z,72.50
2017-11-12T00:12:19.529Z,72.20
2017-11-12T00:14:47.546Z,72.20
2017-11-12T00:17:29.638Z,72.10
2017-11-12T00:20:03.246Z,72.20
2017-11-12T00:22:33.120Z,72.00
2017-11-12T00:24:59.480Z,71.70
2017-11-12T00:27:27.949Z,71.70
2017-11-12T00:29:54.449Z,72.10
2017-11-12T00:32:20.792Z,72.20
2017-11-12T00:34:54.691Z,72.40
2017-11-12T00:37:21.119Z,72.30
2017-11-12T00:39:47.389Z,72.50
2017-11-12T00:42:13.633Z,72.50
2017-11-12T00:44:39.826Z,72.20
2017-11-12T00:47:06.090Z,72.20
2017-11-12T00:49:32.357Z,72.30
2017-11-12T00:51:58.635Z,72.50
2017-11-12T00:54:25.642Z,73.40
2017-11-12T00:56:51.897Z,72.60
2017-11-12T00:59:19.117Z,72.10
2017-11-12T01:01:45.408Z,72.30
2017-11-12T01:04:11.647Z,72.20
2017-11-12T01:06:38.621Z,72.00
2017-11-12T01:09:05.090Z,72.00
2017-11-12T01:11:32.065Z,71.80
2017-11-12T01:13:58.353Z,71.80
2017-11-12T01:16:24.557Z,72.60
2017-11-12T01:18:50.822Z,72.60
2017-11-12T01:21:17.041Z,72.60
2017-11-12T01:23:43.253Z,72.50
2017-11-12T01:26:09.482Z,72.60
2017-11-12T01:28:36.459Z,72.40
2017-11-12T01:31:02.833Z,72.60
2017-11-12T01:33:29.169Z,72.60
2017-11-12T01:35:56.231Z,72.40
2017-11-12T01:38:22.458Z,72.50
2017-11-12T01:40:48.693Z,72.30
2017-11-12T01:43:14.981Z,72.00
2017-11-12T01:45:41.233Z,72.00
2017-11-12T01:48:07.696Z,71.60
2017-11-12T01:50:33.972Z,71.70
2017-11-12T01:53:00.349Z,72.10
2017-11-12T01:55:26.696Z,72.30
2017-11-12T01:57:53.024Z,72.40
2017-11-12T02:00:19.285Z,72.90
2017-11-12T02:02:45.518Z,73.00
2017-11-12T02:05:11.787Z,73.00
2017-11-12T02:07:38.099Z,73.20
2017-11-12T02:10:05.042Z,72.50
2017-11-12T02:12:31.323Z,72.40
2017-11-12T02:14:57.683Z,72.60
2017-11-12T02:17:24.020Z,72.90
2017-11-12T02:19:50.315Z,72.70
2017-11-12T02:22:16.572Z,72.30
2017-11-12T02:24:42.841Z,72.70
2017-11-12T02:27:09.110Z,72.60
2017-11-12T02:29:35.406Z,72.70
2017-11-12T02:32:01.714Z,72.90
2017-11-12T02:34:28.013Z,72.90
2017-11-12T02:36:54.315Z,73.00
2017-11-12T02:39:20.616Z,73.50
2017-11-12T02:41:47.328Z,72.60
2017-11-12T02:44:18.558Z,72.60
2017-11-12T02:46:44.846Z,72.70
2017-11-12T02:49:11.107Z,72.70
2017-11-12T02:51:37.329Z,72.30
2017-11-12T02:54:03.633Z,72.70
2017-11-12T02:56:30.141Z,72.70
2017-11-12T02:58:57.166Z,72.40
2017-11-12T03:01:24.162Z,72.80
2017-11-12T03:03:50.391Z,72.70
2017-11-12T03:06:16.659Z,72.60
2017-11-12T03:08:42.902Z,72.70
2017-11-12T03:11:09.140Z,72.60
2017-11-12T03:13:35.375Z,72.70
2017-11-12T03:16:02.334Z,72.70
2017-11-12T03:18:28.564Z,72.60
2017-11-12T03:20:54.766Z,72.80
2017-11-12T03:23:21.051Z,73.30
2017-11-12T03:25:47.333Z,73.60
2017-11-12T03:28:13.633Z,73.40
2017-11-12T03:30:39.836Z,73.30
2017-11-12T03:33:06.062Z,73.30
2017-11-12T03:35:32.261Z,73.30
2017-11-12T03:37:58.499Z,73.30
2017-11-12T03:40:24.728Z,73.10
2017-11-12T03:42:50.979Z,73.00
2017-11-12T03:45:17.191Z,73.20
2017-11-12T03:47:43.509Z,73.20
2017-11-12T03:50:11.800Z,73.20
2017-11-12T03:52:38.018Z,73.10
2017-11-12T03:55:04.239Z,72.80
2017-11-12T03:57:30.607Z,72.60
2017-11-12T03:59:56.945Z,73.10
2017-11-12T04:02:23.213Z,73.30
2017-11-12T04:04:50.198Z,73.20
2017-11-12T04:07:16.487Z,73.20
2017-11-12T04:09:42.759Z,73.50
2017-11-12T04:12:08.978Z,73.40
2017-11-12T04:14:35.258Z,73.10
2017-11-12T04:17:01.475Z,73.50
2017-11-12T04:19:27.741Z,73.20
2017-11-12T04:21:53.948Z,73.10
2017-11-12T04:24:20.171Z,73.20
2017-11-12T04:26:46.448Z,73.40
2017-11-12T04:29:12.669Z,73.40
2017-11-12T04:31:38.931Z,73.10
2017-11-12T04:34:05.163Z,73.60
2017-11-12T04:36:31.366Z,73.60
2017-11-12T04:38:57.606Z,73.50
2017-11-12T04:41:24.639Z,73.60
2017-11-12T04:43:50.851Z,73.50
2017-11-12T04:46:22.402Z,73.30
2017-11-12T04:48:55.837Z,73.60
2017-11-12T04:51:24.245Z,73.60
2017-11-12T04:53:50.445Z,73.70
2017-11-12T04:59:00.319Z,73.80
2017-11-12T05:01:27.203Z,73.70
2017-11-12T05:03:53.495Z,73.70
2017-11-12T05:06:20.517Z,73.40
2017-11-12T05:08:58.050Z,73.60
2017-11-12T05:11:29.743Z,73.20
2017-11-12T05:13:59.176Z,72.80
2017-11-12T05:16:25.561Z,73.40
2017-11-12T05:18:51.818Z,73.70
2017-11-12T05:21:19.144Z,73.40
2017-11-12T05:23:45.446Z,73.40
2017-11-12T05:26:12.351Z,73.50
2017-11-12T05:28:38.612Z,73.60
2017-11-12T05:31:04.801Z,73.00
2017-11-12T05:33:31.023Z,73.10
2017-11-12T05:35:57.230Z,73.00
2017-11-12T05:38:23.503Z,72.70
2017-11-12T05:40:49.694Z,73.20
2017-11-12T05:43:16.692Z,73.50
2017-11-12T05:45:42.917Z,73.50
2017-11-12T05:48:09.165Z,73.50
2017-11-12T05:50:35.374Z,73.80
2017-11-12T05:53:01.671Z,73.40
2017-11-12T05:55:27.941Z,73.80
2017-11-12T05:57:54.230Z,74.00
2017-11-12T06:00:21.251Z,73.70
2017-11-12T06:02:47.606Z,73.70
2017-11-12T06:05:13.952Z,73.50
2017-11-12T06:07:40.357Z,73.70
2017-11-12T06:10:06.730Z,74.20
2017-11-12T06:12:32.989Z,74.10
2017-11-12T06:14:59.732Z,73.60
2017-11-12T06:17:26.739Z,73.60
2017-11-12T06:19:53.002Z,73.60
2017-11-12T06:22:20.121Z,73.80
2017-11-12T06:24:46.368Z,73.80
2017-11-12T06:27:12.616Z,73.60
2017-11-12T06:29:38.898Z,73.80
2017-11-12T06:32:06.447Z,73.80
2017-11-12T06:34:32.689Z,73.90
2017-11-12T06:36:59.889Z,74.40
2017-11-12T06:39:26.122Z,74.40
2017-11-12T06:41:52.385Z,74.20
2017-11-12T06:44:18.606Z,74.40
2017-11-12T06:46:48.555Z,74.90
2017-11-12T06:49:18.005Z,74.30
2017-11-12T06:51:44.285Z,74.30
2017-11-12T06:54:10.572Z,73.90
2017-11-12T06:56:36.812Z,74.00
2017-11-12T06:59:07.675Z,74.00
2017-11-12T07:01:34.004Z,73.90
2017-11-12T07:04:00.362Z,73.50
2017-11-12T07:06:26.599Z,73.60
2017-11-12T07:08:52.806Z,74.50
2017-11-12T07:11:19.845Z,73.70
2017-11-12T07:13:46.134Z,73.70
2017-11-12T07:16:12.338Z,72.60
2017-11-12T07:18:39.582Z,72.10
2017-11-12T07:21:06.220Z,71.30
2017-11-12T07:23:32.419Z,70.40
2017-11-12T07:25:58.973Z,70.40
2017-11-12T07:28:25.359Z,70.20
2017-11-12T07:30:51.586Z,69.00
2017-11-12T07:33:17.801Z,70.20
2017-11-12T07:35:44.042Z,69.90
2017-11-12T07:38:10.330Z,70.50
2017-11-12T07:40:36.536Z,70.10
2017-11-12T07:43:02.808Z,70.20
2017-11-12T07:45:29.046Z,70.10
2017-11-12T07:47:55.934Z,70.20
2017-11-12T07:50:22.192Z,70.70
2017-11-12T07:52:48.387Z,71.00
2017-11-12T07:55:15.420Z,71.00
2017-11-12T07:57:41.646Z,71.10
2017-11-12T08:00:08.003Z,70.80
2017-11-12T08:02:35.101Z,70.70
2017-11-12T08:05:01.583Z,70.70
2017-11-12T08:07:27.778Z,70.80
2017-11-12T08:09:54.724Z,71.20
2017-11-12T08:12:21.364Z,72.00
2017-11-12T08:14:47.651Z,71.30
2017-11-12T08:17:14.183Z,71.60
2017-11-12T08:19:40.493Z,71.80
2017-11-12T08:22:06.738Z,71.80
2017-11-12T08:24:32.972Z,71.80
2017-11-12T08:26:59.219Z,71.60
2017-11-12T08:29:25.472Z,71.60
2017-11-12T08:31:51.764Z,71.70
2017-11-12T08:34:18.051Z,71.90
2017-11-12T08:36:45.137Z,72.10
2017-11-12T08:39:11.395Z,72.10
2017-11-12T08:41:38.396Z,72.70
2017-11-12T08:44:04.613Z,72.20
2017-11-12T08:46:30.907Z,72.40
2017-11-12T08:48:57.138Z,72.00
2017-11-12T08:51:23.377Z,72.10
2017-11-12T08:53:49.688Z,72.40
2017-11-12T08:56:15.999Z,72.40
2017-11-12T08:58:42.276Z,72.50
2017-11-12T09:01:08.538Z,72.50
2017-11-12T09:03:34.831Z,72.80
2017-11-12T09:06:01.134Z,73.40
2017-11-12T09:08:27.505Z,73.50
2017-11-12T09:10:54.521Z,73.50
2017-11-12T09:13:20.859Z,73.50
2017-11-12T09:15:47.126Z,71.30
2017-11-12T09:18:13.370Z,71.00
2017-11-12T09:20:39.602Z,71.30
2017-11-12T09:23:05.845Z,73.20
2017-11-12T09:25:32.074Z,73.20
2017-11-12T09:27:58.366Z,73.60
2017-11-12T09:30:25.626Z,72.80
2017-11-12T09:32:51.934Z,73.10
2017-11-12T09:35:18.250Z,72.70
2017-11-12T09:37:44.487Z,73.20
2017-11-12T09:40:10.731Z,72.40
2017-11-12T09:42:36.998Z,71.50
2017-11-12T09:45:03.299Z,71.30
2017-11-12T09:47:29.600Z,71.10
2017-11-12T09:49:55.910Z,70.90
2017-11-12T09:52:22.145Z,70.20
2017-11-12T09:54:48.490Z,71.60
2017-11-12T09:57:14.790Z,71.80
2017-11-12T09:59:41.006Z,71.90
2017-11-12T10:02:07.277Z,71.20
2017-11-12T10:04:33.521Z,72.10
2017-11-12T10:06:59.742Z,72.10
2017-11-12T10:09:26.126Z,72.10
2017-11-12T10:11:53.223Z,72.20
2017-11-12T10:14:19.502Z,72.40
2017-11-12T10:16:45.698Z,72.40
2017-11-12T10:19:11.905Z,72.50
2017-11-12T10:21:38.151Z,72.10
2017-11-12T10:24:04.395Z,71.50
2017-11-12T10:26:31.387Z,71.10
2017-11-12T10:28:57.701Z,71.10
2017-11-12T10:31:23.914Z,72.00
2017-11-12T10:33:50.207Z,71.90
2017-11-12T10:36:16.529Z,71.90
2017-11-12T10:38:42.753Z,70.40
2017-11-12T10:41:09.098Z,70.50
2017-11-12T10:43:35.370Z,70.50
2017-11-12T10:46:01.578Z,70.50
2017-11-12T10:48:27.805Z,71.00
2017-11-12T10:50:54.035Z,70.60
2017-11-12T10:56:10.777Z,70.50
2017-11-12T10:58:37.175Z,70.50
2017-11-12T11:01:03.645Z,70.50
2017-11-12T11:03:30.090Z,70.50
2017-11-12T11:05:56.300Z,69.30
2017-11-12T11:08:22.700Z,68.70
2017-11-12T11:10:48.938Z,69.40
2017-11-12T11:13:15.152Z,69.20
2017-11-12T11:15:41.365Z,68.40
2017-11-12T11:18:07.707Z,69.30
2017-11-12T11:20:33.902Z,69.60
2017-11-12T11:23:00.203Z,70.30
2017-11-12T11:25:26.432Z,70.00
2017-11-12T11:27:52.694Z,69.30
2017-11-12T11:30:18.987Z,69.00
2017-11-12T11:32:45.229Z,69.70
2017-11-12T11:35:11.479Z,69.80
2017-11-12T11:37:37.711Z,68.40
2017-11-12T11:40:03.937Z,68.70
2017-11-12T11:42:50.065Z,68.50
2017-11-12T11:54:26.734Z,69.00
2017-11-12T11:56:53.960Z,70.10
2017-11-12T11:59:20.314Z,69.30
2017-11-12T12:01:46.584Z,70.20
2017-11-12T12:04:12.833Z,70.20
2017-11-12T12:06:57.937Z,70.20
2017-11-12T12:09:24.271Z,70.20
2017-11-12T12:11:51.539Z,69.50
2017-11-12T12:14:18.590Z,68.60
2017-11-12T12:16:45.586Z,67.00
2017-11-12T12:19:11.863Z,67.10
2017-11-12T12:21:38.560Z,68.60
2017-11-12T12:24:04.896Z,68.30
2017-11-12T12:26:31.248Z,68.50
2017-11-12T12:28:57.537Z,67.90
2017-11-12T12:31:23.793Z,66.10
2017-11-12T12:33:50.079Z,66.10
2017-11-12T12:36:16.707Z,67.20
2017-11-12T12:38:44.092Z,68.50
2017-11-12T12:41:11.837Z,68.50
2017-11-12T12:43:46.169Z,68.80
2017-11-12T12:46:12.613Z,69.30
2017-11-12T12:48:38.871Z,69.30
2017-11-12T12:51:05.476Z,67.90
2017-11-12T12:53:31.708Z,68.00
2017-11-12T12:55:59.839Z,69.60
2017-11-12T12:58:26.865Z,68.80
2017-11-12T13:00:53.145Z,67.70
2017-11-12T13:03:20.184Z,68.20
2017-11-12T13:05:47.208Z,69.70
2017-11-12T13:08:13.521Z,69.80
2017-11-12T13:10:40.526Z,68.70
2017-11-12T13:13:07.978Z,68.70
2017-11-12T13:15:47.747Z,68.60
2017-11-12T13:18:16.680Z,68.70
2017-11-12T13:20:49.299Z,69.20
2017-11-12T13:23:15.832Z,69.90
2017-11-12T13:25:42.277Z,67.90
2017-11-12T13:28:08.836Z,69.70
2017-11-12T13:30:35.246Z,69.90
2017-11-12T13:33:02.365Z,68.90
2017-11-12T13:35:28.740Z,68.90
2017-11-12T13:40:37.244Z,70.60
2017-11-12T13:43:03.756Z,69.80
2017-11-12T13:45:30.333Z,69.80
2017-11-12T13:47:56.933Z,69.80
2017-11-12T13:50:47.649Z,68.40
2017-11-12T13:53:14.155Z,68.30
2017-11-12T13:55:40.576Z,69.90
2017-11-12T13:58:06.907Z,69.50
2017-11-12T14:00:41.317Z,68.10
2017-11-12T14:03:20.350Z,68.30
2017-11-12T14:05:46.727Z,69.50
2017-11-12T14:08:13.882Z,69.20
2017-11-12T14:10:44.091Z,69.30
2017-11-12T14:13:11.772Z,68.00
2017-11-12T14:15:45.557Z,68.10
2017-11-12T14:18:12.050Z,69.10
2017-11-12T14:20:39.081Z,70.10
2017-11-12T14:23:05.562Z,70.00
2017-11-12T14:25:32.680Z,68.80
2017-11-12T14:27:59.532Z,68.90
2017-11-12T14:30:46.739Z,68.40
2017-11-12T14:33:15.314Z,65.50
2017-11-12T14:35:42.488Z,67.80
2017-11-12T14:38:08.807Z,67.90
2017-11-12T14:40:35.084Z,66.50
2017-11-12T14:43:02.407Z,67.00
2017-11-12T14:45:28.699Z,67.00
2017-11-12T14:47:54.885Z,68.10
2017-11-12T14:50:21.393Z,66.90
2017-11-12T14:52:47.651Z,67.90
2017-11-12T14:55:13.917Z,69.30
2017-11-12T14:57:40.180Z,70.00
2017-11-12T15:00:06.523Z,69.40
2017-11-12T15:02:34.520Z,70.00
2017-11-12T15:05:00.841Z,69.00
2017-11-12T15:07:28.169Z,69.50
2017-11-12T15:09:54.405Z,69.90
2017-11-12T15:12:20.672Z,69.90
2017-11-12T15:14:47.724Z,69.80
2017-11-12T15:17:14.028Z,69.80
2017-11-12T15:19:41.001Z,69.80
2017-11-12T15:22:07.250Z,69.80
2017-11-12T15:24:33.587Z,70.10
2017-11-12T15:26:59.811Z,69.80
2017-11-12T15:29:26.554Z,69.80
2017-11-12T15:31:53.137Z,70.60
2017-11-12T15:34:19.387Z,70.40
2017-11-12T15:36:45.801Z,70.20
2017-11-12T15:39:12.106Z,69.90
2017-11-12T15:41:39.241Z,69.60
2017-11-12T15:44:05.501Z,69.70
2017-11-12T15:46:31.810Z,69.70
2017-11-12T15:48:58.442Z,69.70
2017-11-12T15:51:24.698Z,70.00
2017-11-12T15:53:51.696Z,69.70
2017-11-12T15:56:17.978Z,69.70
2017-11-12T15:58:44.235Z,68.40
2017-11-12T16:01:10.619Z,69.60
2017-11-12T16:03:36.871Z,70.20
2017-11-12T16:06:03.130Z,69.60
2017-11-12T16:08:29.506Z,69.50
2017-11-12T16:10:55.703Z,69.50
2017-11-12T16:13:21.977Z,70.00
2017-11-12T16:15:48.236Z,69.50
2017-11-12T16:18:14.499Z,69.90
2017-11-12T16:20:42.725Z,69.50
2017-11-12T16:23:08.951Z,69.40
2017-11-12T16:25:35.937Z,70.00
2017-11-12T16:28:02.212Z,70.00
2017-11-12T16:30:28.467Z,70.90
2017-11-12T16:32:57.247Z,70.90
2017-11-12T16:35:23.601Z,71.60
2017-11-12T16:37:49.865Z,71.70
2017-11-12T16:40:16.067Z,71.20
2017-11-12T16:42:42.318Z,71.20
2017-11-12T16:45:08.694Z,71.30
2017-11-12T16:47:34.903Z,70.70
2017-11-12T16:50:01.243Z,70.70
2017-11-12T16:52:27.538Z,71.00
2017-11-12T16:54:53.813Z,70.80
2017-11-12T16:57:20.842Z,71.20
2017-11-12T16:59:47.135Z,71.10
2017-11-12T17:02:13.473Z,71.40
2017-11-12T17:04:39.698Z,71.20
2017-11-12T17:07:06.451Z,70.90
2017-11-12T17:09:32.736Z,71.10
2017-11-12T17:11:58.971Z,70.60
2017-11-12T17:14:25.322Z,71.20
2017-11-12T17:16:53.365Z,72.00
2017-11-12T17:19:19.678Z,71.10
2017-11-12T17:21:46.952Z,70.40
2017-11-12T17:24:13.917Z,70.20
2017-11-12T17:26:40.237Z,70.20
2017-11-12T17:29:06.690Z,70.70
2017-11-12T17:31:32.939Z,69.50
2017-11-12T17:33:59.282Z,69.30
2017-11-12T17:36:26.242Z,70.00
2017-11-12T17:38:52.472Z,70.00
2017-11-12T17:41:18.909Z,69.50
2017-11-12T17:43:45.882Z,70.10
2017-11-12T17:46:12.141Z,70.10
2017-11-12T17:48:38.644Z,70.30
2017-11-12T17:51:04.910Z,69.40
2017-11-12T17:53:32.003Z,70.40
2017-11-12T17:55:59.280Z,70.60
2017-11-12T17:58:25.589Z,70.60
2017-11-12T18:00:52.523Z,71.60
2017-11-12T18:03:18.778Z,71.70
2017-11-12T18:05:45.045Z,71.70
2017-11-12T18:08:11.297Z,71.00
2017-11-12T18:10:43.924Z,70.60
2017-11-12T18:13:16.091Z,69.40
2017-11-12T18:15:50.074Z,69.40
2017-11-12T18:18:16.434Z,69.40
2017-11-12T18:20:43.594Z,69.30
2017-11-12T18:23:10.102Z,69.30
2017-11-12T18:25:36.335Z,69.20
2017-11-12T18:28:02.881Z,69.30
2017-11-12T18:30:29.701Z,69.30
2017-11-12T18:32:56.669Z,69.20
2017-11-12T18:35:23.046Z,69.10
2017-11-12T18:37:50.793Z,69.20
2017-11-12T18:40:18.244Z,69.20
2017-11-12T18:42:44.622Z,68.40
2017-11-12T18:45:10.929Z,68.20
2017-11-12T18:47:37.416Z,67.60
2017-11-12T18:50:03.859Z,68.10
2017-11-12T18:52:30.165Z,66.70
2017-11-12T18:54:57.495Z,67.30
2017-11-12T18:57:42.810Z,67.30
2017-11-12T19:00:12.426Z,67.10
2017-11-12T19:02:44.651Z,67.60
2017-11-12T19:05:11.846Z,67.50
2017-11-12T19:07:39.162Z,66.20
2017-11-12T19:10:09.523Z,66.80
2017-11-12T19:12:35.843Z,67.50
2017-11-12T19:15:02.173Z,67.40
2017-11-12T19:17:29.041Z,67.40
2017-11-12T19:19:56.457Z,67.90
2017-11-12T19:22:39.864Z,67.50
2017-11-12T19:25:07.053Z,69.10
2017-11-12T19:27:33.480Z,69.10
2017-11-12T19:29:59.830Z,68.00
2017-11-12T19:32:26.143Z,68.10
2017-11-12T19:34:52.380Z,67.40
2017-11-12T19:37:18.671Z,66.20
2017-11-12T19:39:45.031Z,66.10
2017-11-12T19:42:11.967Z,65.00
2017-11-12T19:44:38.241Z,65.00
2017-11-12T19:47:04.646Z,65.90
2017-11-12T19:49:31.054Z,64.80
2017-11-12T19:51:57.291Z,66.40
2017-11-12T19:54:28.808Z,66.70
2017-11-12T19:56:55.104Z,66.80
2017-11-12T19:59:21.406Z,66.60
2017-11-12T20:01:48.150Z,66.70
2017-11-12T20:04:14.800Z,66.20
2017-11-12T20:06:41.107Z,65.00
2017-11-12T20:09:07.388Z,64.90
2017-11-12T20:11:35.024Z,65.10
2017-11-12T20:14:02.157Z,66.30
2017-11-12T20:16:35.602Z,65.60
2017-11-12T20:19:01.929Z,66.10
2017-11-12T20:21:28.305Z,65.70
2017-11-12T20:23:56.081Z,65.60
2017-11-12T20:26:22.350Z,66.20
2017-11-12T20:28:48.601Z,67.80
2017-11-12T20:31:14.867Z,66.30
2017-11-12T20:36:13.770Z,67.40
2017-11-12T20:38:40.016Z,66.90
2017-11-12T20:41:06.260Z,68.00
2017-11-12T20:43:32.606Z,64.80
2017-11-12T20:45:58.993Z,66.40
2017-11-12T20:48:25.288Z,66.80
2017-11-12T20:50:51.618Z,66.10
2017-11-12T20:53:17.983Z,66.20
2017-11-12T20:55:44.260Z,65.70
2017-11-12T20:58:11.316Z,66.00
2017-11-12T21:00:37.626Z,66.00
2017-11-12T21:03:03.885Z,66.30
2017-11-12T21:05:31.013Z,65.80
2017-11-12T21:07:57.285Z,66.10
2017-11-12T21:10:23.519Z,66.80
2017-11-12T21:12:49.766Z,66.50
2017-11-12T21:15:16.090Z,65.90
2017-11-12T21:17:42.342Z,66.50
2017-11-12T21:20:19.324Z,66.10
2017-11-12T21:22:51.545Z,66.00
2017-11-12T21:25:17.853Z,66.90
2017-11-12T21:27:44.106Z,66.10
2017-11-12T21:30:14.163Z,66.40
2017-11-12T21:32:40.455Z,65.90
2017-11-12T21:35:17.653Z,65.40
2017-11-12T21:37:45.809Z,65.90
2017-11-12T21:40:12.107Z,66.30
2017-11-12T21:42:38.585Z,67.00
2017-11-12T21:45:04.934Z,65.30
2017-11-12T21:47:31.200Z,65.90
2017-11-12T21:49:58.271Z,66.50
2017-11-12T21:52:24.527Z,66.50
2017-11-12T21:54:50.763Z,66.40
2017-11-12T21:57:17.808Z,66.20
2017-11-12T21:59:44.902Z,67.20
2017-11-12T22:02:11.168Z,67.20
2017-11-12T22:04:37.414Z,65.90
2017-11-12T22:07:03.679Z,66.40
2017-11-12T22:09:29.917Z,66.00
2017-11-12T22:11:56.181Z,66.00
2017-11-12T22:14:22.467Z,66.20
2017-11-12T22:16:48.701Z,66.50
2017-11-12T22:19:15.003Z,66.50
2017-11-12T22:21:41.334Z,66.50
2017-11-12T22:24:10.217Z,67.00
2017-11-12T22:26:36.534Z,66.50
2017-11-12T22:29:02.794Z,65.90
2017-11-12T22:31:28.998Z,66.10
2017-11-12T22:33:55.457Z,66.80
2017-11-12T22:36:21.670Z,65.80
2017-11-12T22:38:48.095Z,65.90
2017-11-12T22:41:14.342Z,66.50
2017-11-12T22:43:41.065Z,65.80
2017-11-12T22:46:07.321Z,65.60
2017-11-12T22:48:33.681Z,66.00
2017-11-12T22:51:00.009Z,67.60
2017-11-12T22:53:26.419Z,66.10
2017-11-12T22:55:52.669Z,66.50
2017-11-12T22:58:18.899Z,66.20
2017-11-12T23:00:51.108Z,67.10
2017-11-12T23:03:18.099Z,66.80
2017-11-12T23:05:44.332Z,66.80
2017-11-12T23:08:10.646Z,66.70
2017-11-12T23:10:36.874Z,66.70
2017-11-12T23:13:03.894Z,67.40
2017-11-12T23:15:30.190Z,67.40
2017-11-12T23:17:56.428Z,66.70
2017-11-12T23:20:22.627Z,67.40
2017-11-12T23:22:49.969Z,67.30
2017-11-12T23:25:16.195Z,67.50
2017-11-12T23:27:42.561Z,67.70
2017-11-12T23:30:08.883Z,67.90
2017-11-12T23:32:35.111Z,67.60
2017-11-12T23:35:01.356Z,67.90
2017-11-12T23:37:28.479Z,68.30
2017-11-12T23:39:54.802Z,68.30
2017-11-12T23:42:21.011Z,68.80
2017-11-12T23:44:47.262Z,68.70
2017-11-12T23:47:13.571Z,67.80
2017-11-12T23:49:39.880Z,67.90
2017-11-12T23:52:06.094Z,67.20
2017-11-12T23:54:33.194Z,67.80
2017-11-12T23:56:59.399Z,67.80
2017-11-12T23:59:25.666Z,67.40
